Time;durP1;ratioP1;P1;durP2;ratioP2;P2;SDS_P1;SDS_P2;PMS_P1;PMS_P2;Temp;Humidity;BMP_temperature;BMP_pressure;BME280_temperature;BME280_humidity;BME280_pressure;Samples;Min_cycle;Max_cycle;Signal;HPM_P1;HPM_P2
2023/10/05 00:03:46;;;;;;;9.40;3.90;;;14.60;99.90;;;;;;5105623;28;20421;-64
2023/10/05 00:06:14;;;;;;;5.37;3.60;;;14.70;99.90;;;;;;5105061;28;20429;-63
2023/10/05 00:08:48;;;;;;;5.90;3.60;;;14.70;99.90;;;;;;5105656;28;20425;-64
2023/10/05 00:11:24;;;;;;;9.50;3.87;;;14.60;99.90;;;;;;5105447;28;20418;-64
2023/10/05 00:13:53;;;;;;;12.43;3.77;;;14.60;99.90;;;;;;5100627;28;20469;-64
2023/10/05 00:16:23;;;;;;;8.13;3.77;;;14.70;99.90;;;;;;5101580;28;20432;-64
2023/10/05 00:18:52;;;;;;;7.30;3.80;;;14.70;99.90;;;;;;5105435;28;20429;-64
2023/10/05 00:21:20;;;;;;;5.00;3.13;;;14.60;99.90;;;;;;5104450;28;20428;-63
2023/10/05 00:23:54;;;;;;;8.17;4.40;;;14.60;99.90;;;;;;5105245;28;20920;-64
2023/10/05 00:26:20;;;;;;;8.60;2.97;;;14.60;99.90;;;;;;5104169;28;20465;-62
2023/10/05 00:28:56;;;;;;;7.17;3.03;;;14.60;99.90;;;;;;5105121;28;20429;-63
2023/10/05 00:31:24;;;;;;;5.77;3.10;;;14.60;99.90;;;;;;5104090;28;20439;-63
2023/10/05 00:33:55;;;;;;;9.27;3.30;;;14.60;99.90;;;;;;5104866;28;20473;-64
2023/10/05 00:36:24;;;;;;;7.90;2.83;;;14.60;99.90;;;;;;5104172;28;20425;-64
2023/10/05 00:38:53;;;;;;;4.10;3.17;;;14.60;99.90;;;;;;5104970;28;20489;-64
2023/10/05 00:41:19;;;;;;;7.67;3.40;;;14.60;99.90;;;;;;5103885;28;20426;-64
2023/10/05 00:43:46;;;;;;;4.87;2.90;;;14.50;99.90;;;;;;5104660;28;20429;-64
2023/10/05 00:46:12;;;;;;;5.73;3.20;;;14.50;99.90;;;;;;5104487;28;20426;-63
2023/10/05 00:48:56;;;;;;;9.53;3.97;;;14.50;99.90;;;;;;5104335;28;20504;-64
2023/10/05 00:51:30;;;;;;;5.57;3.07;;;14.50;99.90;;;;;;5103889;28;20528;-63
2023/10/05 00:53:56;;;;;;;7.27;2.70;;;14.40;99.90;;;;;;5104911;28;20469;-64
2023/10/05 00:56:22;;;;;;;6.60;2.90;;;14.40;99.90;;;;;;5103896;28;20422;-64
2023/10/05 00:58:54;;;;;;;10.63;3.70;;;14.50;99.90;;;;;;5104804;28;20429;-64
2023/10/05 01:01:26;;;;;;;5.30;2.60;;;14.50;99.90;;;;;;5103462;28;20467;-64
2023/10/05 01:06:41;;;;;;;5.93;2.73;;;14.40;99.90;;;;;;5103507;28;20429;-64
2023/10/05 01:12:11;;;;;;;7.40;3.77;;;14.40;99.90;;;;;;5104308;28;20458;-64
2023/10/05 01:14:38;;;;;;;6.43;2.80;;;14.50;99.90;;;;;;5103765;28;20527;-64
2023/10/05 01:17:05;;;;;;;6.23;3.17;;;14.40;99.90;;;;;;5079288;28;20433;-64
2023/10/05 01:19:32;;;;;;;5.90;2.60;;;14.40;99.90;;;;;;5102655;28;20453;-64
2023/10/05 01:21:57;;;;;;;6.73;3.10;;;14.40;99.90;;;;;;5104339;28;20435;-63
2023/10/05 01:24:25;;;;;;;5.53;3.10;;;14.40;99.90;;;;;;5102824;28;20430;-64
2023/10/05 01:26:51;;;;;;;5.80;3.03;;;14.50;99.90;;;;;;5103732;28;20194;-64
2023/10/05 01:29:17;;;;;;;5.47;2.40;;;14.50;99.90;;;;;;5103087;28;20434;-64
2023/10/05 01:31:42;;;;;;;5.57;2.93;;;14.50;99.90;;;;;;5103915;28;20179;-64
2023/10/05 01:34:10;;;;;;;4.80;2.60;;;14.50;99.90;;;;;;5103480;28;20298;-64
2023/10/05 01:36:35;;;;;;;5.53;3.03;;;14.40;99.90;;;;;;5103611;28;20184;-64
2023/10/05 01:39:06;;;;;;;5.33;2.90;;;14.40;99.90;;;;;;5103550;28;20938;-64
2023/10/05 01:41:32;;;;;;;9.03;2.90;;;14.40;99.90;;;;;;5108629;27;20179;-64
2023/10/05 01:44:00;;;;;;;5.07;2.43;;;14.40;99.90;;;;;;5103467;28;20426;-64
2023/10/05 01:46:26;;;;;;;5.37;2.70;;;14.40;99.90;;;;;;5102400;28;20433;-64
2023/10/05 01:48:52;;;;;;;7.60;2.53;;;14.40;99.90;;;;;;5103645;28;20436;-65
2023/10/05 01:51:23;;;;;;;8.33;3.43;;;14.40;99.90;;;;;;5102715;28;20285;-65
2023/10/05 01:53:56;;;;;;;5.37;2.80;;;14.40;99.90;;;;;;5103476;28;20504;-65
2023/10/05 01:56:22;;;;;;;5.00;2.60;;;14.40;99.90;;;;;;5084356;28;20799;-65
2023/10/05 01:58:54;;;;;;;5.13;2.40;;;14.40;99.90;;;;;;5104053;28;20752;-65
2023/10/05 02:01:20;;;;;;;5.83;2.40;;;14.40;99.90;;;;;;5103115;28;20521;-65
2023/10/05 02:03:48;;;;;;;7.90;3.00;;;14.40;99.90;;;;;;5103479;28;20436;-65
2023/10/05 02:06:15;;;;;;;4.40;2.40;;;14.40;99.90;;;;;;5102650;28;20429;-66
2023/10/05 02:08:42;;;;;;;4.60;2.40;;;14.30;99.90;;;;;;5095361;28;20436;-65
2023/10/05 02:11:09;;;;;;;4.70;2.90;;;14.30;99.90;;;;;;5103058;28;20562;-65
2023/10/05 02:13:35;;;;;;;6.97;2.70;;;14.30;99.90;;;;;;5103585;28;20484;-65
2023/10/05 02:16:02;;;;;;;6.33;3.03;;;14.30;99.90;;;;;;5103127;28;20450;-65
2023/10/05 02:18:31;;;;;;;9.90;3.53;;;14.30;99.90;;;;;;5102449;28;20986;-65
2023/10/05 02:21:08;;;;;;;7.97;3.40;;;14.20;99.90;;;;;;5103383;28;20858;-65
2023/10/05 02:23:39;;;;;;;7.03;2.90;;;14.20;99.90;;;;;;5103084;28;20440;-65
2023/10/05 02:26:23;;;;;;;6.50;2.70;;;14.20;99.90;;;;;;5102890;28;21133;-64
2023/10/05 02:28:52;;;;;;;4.33;2.60;;;14.10;99.90;;;;;;5098570;28;20528;-65
2023/10/05 02:31:20;;;;;;;8.60;3.27;;;14.10;99.90;;;;;;5104959;28;20429;-65
2023/10/05 02:33:46;;;;;;;9.50;3.07;;;14.10;99.90;;;;;;5106994;28;20465;-65
2023/10/05 02:36:13;;;;;;;6.40;3.10;;;14.10;99.90;;;;;;5106750;28;20419;-64
2023/10/05 02:38:48;;;;;;;5.90;2.80;;;14.20;99.90;;;;;;5107017;28;20524;-65
2023/10/05 02:41:16;;;;;;;6.10;2.70;;;14.20;99.90;;;;;;5106607;28;20440;-65
2023/10/05 02:43:51;;;;;;;3.87;2.33;;;14.20;99.90;;;;;;5106049;28;20425;-65
2023/10/05 02:46:17;;;;;;;6.77;3.03;;;14.20;99.90;;;;;;5080070;28;20441;-64
2023/10/05 02:48:43;;;;;;;6.00;2.80;;;14.10;99.90;;;;;;5106868;28;20450;-65
2023/10/05 02:51:13;;;;;;;4.13;2.60;;;14.10;99.90;;;;;;5107052;28;20205;-65
2023/10/05 02:53:44;;;;;;;6.83;2.80;;;14.10;99.90;;;;;;5106648;28;20293;-65
2023/10/05 02:56:26;;;;;;;5.60;3.63;;;14.10;99.90;;;;;;5105623;28;20426;-65
2023/10/05 02:59:01;;;;;;;8.90;2.80;;;14.10;99.90;;;;;;5100325;28;20973;-65
2023/10/05 03:01:27;;;;;;;7.20;2.93;;;14.00;99.90;;;;;;5106205;28;20518;-65
2023/10/05 03:03:55;;;;;;;7.87;3.20;;;14.10;99.90;;;;;;5106999;28;20560;-65
2023/10/05 03:06:22;;;;;;;4.70;3.23;;;14.10;99.90;;;;;;5105969;28;20192;-65
2023/10/05 03:08:49;;;;;;;4.20;2.10;;;14.20;99.90;;;;;;5088413;28;20425;-65
2023/10/05 03:11:18;;;;;;;11.07;2.47;;;14.20;99.90;;;;;;5105907;28;20425;-65
2023/10/05 03:13:44;;;;;;;6.33;3.17;;;14.10;99.90;;;;;;5098816;28;20500;-65
2023/10/05 03:16:10;;;;;;;5.20;2.93;;;14.10;99.90;;;;;;5105650;28;20426;-65
2023/10/05 03:18:43;;;;;;;5.67;2.60;;;14.00;99.90;;;;;;5106531;28;21001;-65
2023/10/05 03:21:13;;;;;;;7.53;3.30;;;14.10;99.90;;;;;;5097300;28;20489;-64
2023/10/05 03:23:42;;;;;;;6.63;3.57;;;14.10;99.90;;;;;;5106388;28;20438;-65
2023/10/05 03:26:10;;;;;;;5.20;3.20;;;14.10;99.90;;;;;;5105743;28;20460;-65
2023/10/05 03:28:36;;;;;;;4.50;2.43;;;14.10;99.90;;;;;;5106323;28;20983;-65
2023/10/05 03:31:07;;;;;;;9.17;2.37;;;14.10;99.90;;;;;;5106154;28;20425;-64
2023/10/05 03:33:35;;;;;;;5.10;2.40;;;14.20;99.90;;;;;;5105721;28;21308;-64
2023/10/05 03:36:06;;;;;;;4.67;2.70;;;14.20;99.90;;;;;;5106032;28;20907;-65
2023/10/05 03:38:33;;;;;;;4.50;2.40;;;14.20;99.90;;;;;;5105828;28;20445;-65
2023/10/05 03:41:08;;;;;;;8.63;2.83;;;14.20;99.90;;;;;;5105488;28;20452;-65
2023/10/05 03:43:34;;;;;;;4.63;2.40;;;14.20;99.90;;;;;;5106054;28;20425;-65
2023/10/05 03:46:08;;;;;;;4.00;2.63;;;14.20;99.90;;;;;;5105890;28;21021;-65
2023/10/05 03:48:38;;;;;;;7.97;3.30;;;14.10;99.90;;;;;;5105937;28;20183;-65
2023/10/05 03:51:15;;;;;;;6.87;3.10;;;14.20;99.90;;;;;;5105684;28;20433;-64
2023/10/05 03:53:48;;;;;;;4.87;2.70;;;14.10;99.90;;;;;;5097623;28;20469;-65
2023/10/05 03:56:21;;;;;;;7.50;2.83;;;14.10;99.90;;;;;;5103018;28;20430;-65
2023/10/05 03:58:48;;;;;;;6.97;3.10;;;14.10;99.90;;;;;;5105825;28;20437;-65
2023/10/05 04:01:15;;;;;;;3.70;1.73;;;14.10;99.90;;;;;;5104005;28;20461;-65
2023/10/05 04:03:44;;;;;;;5.40;2.57;;;14.10;99.90;;;;;;5097480;28;20525;-65
2023/10/05 04:06:24;;;;;;;4.70;2.40;;;14.10;99.90;;;;;;5097042;28;20525;-65
2023/10/05 04:09:15;;;;;;;7.40;2.23;;;14.10;99.90;;;;;;5105551;28;20428;-65
2023/10/05 04:11:39;;;;;;;4.17;2.40;;;14.00;99.90;;;;;;5100289;28;21285;-65
2023/10/05 04:14:05;;;;;;;6.33;2.90;;;14.10;99.90;;;;;;5105198;28;20430;-65
2023/10/05 04:16:33;;;;;;;6.73;2.70;;;13.90;99.90;;;;;;5102248;28;20194;-65
2023/10/05 04:19:04;;;;;;;6.17;2.77;;;14.00;99.90;;;;;;5105553;28;20201;-65
2023/10/05 04:21:30;;;;;;;4.77;2.53;;;14.00;99.90;;;;;;5103200;28;21103;-64
2023/10/05 04:23:59;;;;;;;5.57;2.13;;;14.00;99.90;;;;;;5104920;28;20447;-65
2023/10/05 04:26:48;;;;;;;5.73;2.60;;;14.00;99.90;;;;;;5103467;28;20433;-64
2023/10/05 04:29:14;;;;;;;7.70;2.40;;;13.90;99.90;;;;;;5103670;28;20422;-65
2023/10/05 04:31:41;;;;;;;5.37;2.90;;;13.90;99.90;;;;;;5093445;28;20846;-65
2023/10/05 04:34:12;;;;;;;4.73;2.80;;;13.90;99.90;;;;;;5102445;28;20757;-65
2023/10/05 04:36:39;;;;;;;5.90;2.30;;;14.00;99.90;;;;;;5101860;28;20513;-65
2023/10/05 04:39:06;;;;;;;7.43;2.90;;;13.80;99.90;;;;;;5104370;28;21000;-64
2023/10/05 04:41:39;;;;;;;5.03;2.60;;;13.80;99.90;;;;;;5102502;28;21191;-65
2023/10/05 04:44:12;;;;;;;9.57;3.00;;;13.90;99.90;;;;;;5104200;28;20426;-64
2023/10/05 04:46:47;;;;;;;6.50;2.60;;;13.80;99.90;;;;;;5104568;28;20438;-64
2023/10/05 04:49:13;;;;;;;4.97;2.70;;;13.80;99.90;;;;;;5099218;28;20485;-65
2023/10/05 04:51:40;;;;;;;6.63;2.90;;;13.80;99.90;;;;;;5084272;28;20522;-65
2023/10/05 04:54:10;;;;;;;8.77;3.00;;;13.80;99.90;;;;;;5082856;28;20616;-64
2023/10/05 04:56:43;;;;;;;6.70;2.20;;;13.80;99.90;;;;;;5084200;28;20433;-65
2023/10/05 05:01:56;;;;;;;2.60;1.83;;;13.80;99.90;;;;;;5083876;28;20786;-65
2023/10/05 05:04:52;;;;;;;7.30;3.33;;;13.70;99.90;;;;;;5083137;28;20768;-65
2023/10/05 05:07:21;;;;;;;3.03;2.17;;;13.70;99.90;;;;;;5083213;28;20537;-64
2023/10/05 05:09:47;;;;;;;4.73;2.40;;;13.70;99.90;;;;;;5084149;28;20447;-65
2023/10/05 05:12:17;;;;;;;5.83;2.70;;;13.70;99.90;;;;;;5083285;28;20827;-64
2023/10/05 05:14:44;;;;;;;7.90;2.57;;;13.70;99.90;;;;;;5083703;28;20435;-65
2023/10/05 05:17:23;;;;;;;6.37;3.00;;;13.60;99.90;;;;;;5083462;28;20423;-64
2023/10/05 05:19:52;;;;;;;7.27;2.50;;;13.70;99.90;;;;;;5084272;28;20504;-64
2023/10/05 05:22:18;;;;;;;6.97;2.60;;;13.60;99.90;;;;;;5083143;28;20813;-65
2023/10/05 05:24:45;;;;;;;4.77;2.80;;;13.60;99.90;;;;;;5066018;28;20479;-64
2023/10/05 05:29:42;;;;;;;8.37;2.67;;;13.70;99.90;;;;;;5084115;28;20798;-64
2023/10/05 05:32:11;;;;;;;6.13;2.27;;;13.70;99.90;;;;;;5083029;28;20462;-65
2023/10/05 05:34:37;;;;;;;7.40;2.57;;;13.70;99.90;;;;;;5084127;28;20523;-65
2023/10/05 05:37:07;;;;;;;7.60;2.40;;;13.70;99.90;;;;;;5083300;28;20460;-64
2023/10/05 05:39:39;;;;;;;4.97;2.20;;;13.60;99.90;;;;;;5084865;28;20434;-65
2023/10/05 05:42:07;;;;;;;7.17;2.57;;;13.60;99.90;;;;;;5091207;28;20439;-64
2023/10/05 05:44:36;;;;;;;8.60;3.00;;;13.60;99.90;;;;;;5083686;28;20434;-65
2023/10/05 05:47:09;;;;;;;6.80;2.37;;;13.60;99.90;;;;;;5083383;28;20426;-65
2023/10/05 05:49:36;;;;;;;4.27;2.27;;;13.60;99.90;;;;;;5092330;28;20955;-65
2023/10/05 05:52:05;;;;;;;2.93;2.10;;;13.70;99.90;;;;;;5096146;28;20464;-65
2023/10/05 05:54:31;;;;;;;7.20;2.87;;;13.70;99.90;;;;;;5083878;28;21182;-65
2023/10/05 05:56:57;;;;;;;3.90;2.40;;;13.70;99.90;;;;;;5083827;28;20583;-64
2023/10/05 05:59:23;;;;;;;7.70;2.93;;;13.80;99.90;;;;;;5083999;28;21024;-65
2023/10/05 06:01:52;;;;;;;4.93;2.87;;;13.70;99.90;;;;;;5083755;28;20935;-65
2023/10/05 06:04:18;;;;;;;3.80;2.30;;;13.70;99.90;;;;;;5082181;28;20192;-65
2023/10/05 06:06:44;;;;;;;4.47;2.83;;;13.80;99.90;;;;;;5083253;28;20422;-65
2023/10/05 06:09:13;;;;;;;7.00;2.83;;;13.80;99.90;;;;;;5082623;28;20203;-64
2023/10/05 06:11:40;;;;;;;7.67;2.50;;;13.70;99.90;;;;;;5083011;28;20955;-65
2023/10/05 06:14:06;;;;;;;7.33;2.87;;;13.70;99.90;;;;;;5082014;28;20485;-65
2023/10/05 06:16:34;;;;;;;5.50;2.73;;;13.70;99.90;;;;;;5083085;28;20484;-65
2023/10/05 06:19:01;;;;;;;9.20;2.70;;;13.70;99.90;;;;;;5082550;28;20427;-64
2023/10/05 06:21:27;;;;;;;5.63;2.53;;;13.70;99.90;;;;;;5083444;28;20449;-65
2023/10/05 06:23:53;;;;;;;6.57;2.57;;;13.70;99.90;;;;;;5083119;28;20929;-65
2023/10/05 06:26:21;;;;;;;9.20;3.30;;;13.70;99.90;;;;;;5082180;28;20687;-65
2023/10/05 06:28:47;;;;;;;5.63;3.40;;;13.70;99.90;;;;;;5083043;28;20451;-65
2023/10/05 06:31:13;;;;;;;4.03;2.70;;;13.80;99.90;;;;;;5082465;28;20471;-65
2023/10/05 06:33:42;;;;;;;3.63;2.53;;;13.80;99.90;;;;;;5082304;28;20901;-65
2023/10/05 06:36:08;;;;;;;9.87;2.73;;;13.80;99.90;;;;;;5063753;28;20180;-65
2023/10/05 06:38:35;;;;;;;3.40;2.63;;;13.70;99.90;;;;;;5082771;28;20454;-65
2023/10/05 06:41:03;;;;;;;5.20;2.97;;;13.80;99.90;;;;;;5087916;28;20481;-65
2023/10/05 06:43:29;;;;;;;4.23;2.60;;;13.80;99.90;;;;;;5084277;28;20438;-65
2023/10/05 06:45:59;;;;;;;7.87;2.93;;;13.80;99.90;;;;;;5082184;28;20422;-65
2023/10/05 06:48:34;;;;;;;7.03;2.60;;;13.80;99.90;;;;;;5082622;28;20463;-65
2023/10/05 06:51:00;;;;;;;6.10;2.90;;;13.80;99.90;;;;;;5096777;28;20452;-65
2023/10/05 06:53:26;;;;;;;7.80;3.60;;;13.80;99.90;;;;;;5102770;28;20461;-65
2023/10/05 06:55:52;;;;;;;6.43;2.50;;;13.90;99.90;;;;;;5102778;28;20191;-65
2023/10/05 06:58:17;;;;;;;6.53;3.10;;;13.90;99.90;;;;;;5102602;28;20206;-64
2023/10/05 07:00:43;;;;;;;8.47;3.10;;;13.90;99.90;;;;;;5103065;28;20911;-63
2023/10/05 07:03:11;;;;;;;5.43;2.60;;;14.00;99.90;;;;;;5102090;28;20657;-65
2023/10/05 07:05:36;;;;;;;8.40;3.27;;;14.00;99.90;;;;;;5102807;28;20192;-65
2023/10/05 07:08:03;;;;;;;8.70;3.30;;;14.00;99.90;;;;;;5102105;28;20429;-65
2023/10/05 07:10:29;;;;;;;8.93;2.97;;;14.00;99.90;;;;;;5102646;28;20183;-65
2023/10/05 07:12:55;;;;;;;6.77;3.10;;;14.00;99.90;;;;;;5102147;28;20469;-65
2023/10/05 07:15:23;;;;;;;8.83;2.63;;;14.00;99.90;;;;;;5102593;28;20425;-65
2023/10/05 07:17:49;;;;;;;5.07;3.03;;;14.00;99.90;;;;;;5105918;28;20216;-65
2023/10/05 07:20:16;;;;;;;6.03;2.50;;;14.00;99.90;;;;;;5106349;28;20440;-64
2023/10/05 07:22:44;;;;;;;8.00;3.13;;;14.00;99.90;;;;;;5106102;28;20429;-65
2023/10/05 07:25:10;;;;;;;6.03;2.70;;;14.10;99.90;;;;;;5105416;28;20417;-65
2023/10/05 07:27:37;;;;;;;5.33;3.30;;;14.10;99.90;;;;;;5106204;28;20425;-65
2023/10/05 07:30:04;;;;;;;12.43;2.83;;;14.10;99.90;;;;;;5105281;28;20425;-65
2023/10/05 07:32:31;;;;;;;5.50;2.60;;;14.10;99.90;;;;;;5096224;28;20465;-65
2023/10/05 07:34:57;;;;;;;9.03;2.80;;;14.20;99.90;;;;;;5105388;28;20512;-64
2023/10/05 07:37:23;;;;;;;7.50;2.80;;;14.20;99.90;;;;;;5105527;28;20426;-65
2023/10/05 07:39:51;;;;;;;7.87;2.80;;;14.20;99.90;;;;;;5106365;28;20425;-64
2023/10/05 07:42:17;;;;;;;11.30;3.27;;;14.20;99.90;;;;;;5102023;28;20526;-64
2023/10/05 07:44:43;;;;;;;6.13;3.20;;;14.20;99.90;;;;;;5105900;28;21256;-65
2023/10/05 07:47:12;;;;;;;4.10;2.53;;;14.30;99.90;;;;;;5101078;28;20417;-64
2023/10/05 07:49:38;;;;;;;5.03;2.50;;;14.30;99.90;;;;;;5105906;28;20442;-65
2023/10/05 07:52:09;;;;;;;7.60;3.03;;;14.40;99.90;;;;;;5099861;28;20432;-65
2023/10/05 07:54:39;;;;;;;6.37;3.00;;;14.40;99.90;;;;;;5105611;28;20463;-65
2023/10/05 07:57:11;;;;;;;7.80;3.10;;;14.40;99.90;;;;;;5104855;28;20565;-65
2023/10/05 07:59:41;;;;;;;4.43;3.40;;;14.50;99.90;;;;;;5105689;28;20456;-65
2023/10/05 08:02:10;;;;;;;6.07;2.93;;;14.60;99.90;;;;;;5104646;28;20458;-65
2023/10/05 08:04:36;;;;;;;4.43;2.87;;;14.60;99.90;;;;;;5105629;28;20442;-65
2023/10/05 08:07:03;;;;;;;4.30;3.20;;;14.50;99.90;;;;;;5104838;28;20445;-65
2023/10/05 08:09:29;;;;;;;6.00;3.90;;;14.60;99.90;;;;;;5105370;28;20434;-65
2023/10/05 08:11:56;;;;;;;5.40;2.97;;;14.70;99.90;;;;;;5104888;28;20781;-64
2023/10/05 08:14:26;;;;;;;5.57;3.00;;;14.70;99.90;;;;;;5105333;28;20464;-65
2023/10/05 08:16:55;;;;;;;8.33;3.40;;;14.70;99.90;;;;;;5104958;28;20464;-65
2023/10/05 08:19:21;;;;;;;4.00;2.67;;;14.70;99.90;;;;;;5086644;28;20440;-65
2023/10/05 08:21:47;;;;;;;8.00;2.83;;;14.70;99.90;;;;;;5105361;28;20475;-65
2023/10/05 08:24:17;;;;;;;7.60;2.80;;;14.80;99.90;;;;;;5104286;28;20430;-65
2023/10/05 08:26:43;;;;;;;10.70;2.80;;;14.80;99.90;;;;;;5105337;28;20180;-65
2023/10/05 08:29:09;;;;;;;10.83;3.90;;;14.80;99.90;;;;;;5103314;28;20561;-65
2023/10/05 08:31:35;;;;;;;7.13;3.23;;;14.80;99.90;;;;;;5105190;28;20487;-65
2023/10/05 08:34:03;;;;;;;5.80;2.83;;;14.90;99.90;;;;;;5103942;28;20220;-65
2023/10/05 08:36:30;;;;;;;6.50;2.90;;;14.80;99.90;;;;;;5105318;28;20482;-64
2023/10/05 08:38:56;;;;;;;8.43;3.80;;;14.80;99.90;;;;;;5104393;28;20498;-64
2023/10/05 08:41:32;;;;;;;7.60;2.80;;;14.90;99.90;;;;;;5112342;27;20573;-65
2023/10/05 08:43:59;;;;;;;3.97;2.63;;;14.90;99.90;;;;;;5097987;28;20459;-65
2023/10/05 08:46:26;;;;;;;5.70;3.10;;;14.90;99.90;;;;;;5086917;28;20429;-64
2023/10/05 08:48:52;;;;;;;10.07;3.90;;;15.00;99.90;;;;;;5104432;28;20421;-65
2023/10/05 08:51:17;;;;;;;7.23;3.43;;;15.10;99.90;;;;;;5101315;28;20422;-65
2023/10/05 08:53:48;;;;;;;7.20;3.03;;;15.10;99.90;;;;;;5104538;28;20990;-65
2023/10/05 08:56:16;;;;;;;10.97;3.40;;;15.20;99.90;;;;;;5104417;28;20298;-65
2023/10/05 08:58:45;;;;;;;8.33;3.67;;;15.40;99.90;;;;;;5104682;28;20934;-65
2023/10/05 09:01:33;;;;;;;6.03;3.30;;;15.50;99.90;;;;;;5104236;28;21018;-65
2023/10/05 09:06:47;;;;;;;9.87;3.27;;;15.70;99.90;;;;;;5103690;28;20431;-65
2023/10/05 09:09:14;;;;;;;5.00;2.70;;;15.60;99.90;;;;;;5104015;28;20518;-65
2023/10/05 09:11:40;;;;;;;7.00;3.00;;;15.70;99.90;;;;;;5104645;28;20422;-65
2023/10/05 09:14:27;;;;;;;9.87;3.70;;;15.70;99.90;;;;;;5103709;28;20538;-65
2023/10/05 09:17:04;;;;;;;10.03;3.10;;;15.70;99.90;;;;;;5103840;28;20433;-64
2023/10/05 09:19:33;;;;;;;4.87;3.07;;;15.80;99.90;;;;;;5104169;28;20437;-65
2023/10/05 09:24:29;;;;;;;5.50;3.03;;;15.90;99.90;;;;;;5102125;28;20787;-65
2023/10/05 09:26:57;;;;;;;6.17;3.57;;;15.90;99.90;;;;;;5103497;28;20422;-65
2023/10/05 09:29:23;;;;;;;4.80;3.10;;;15.80;99.90;;;;;;5101519;28;20457;-65
2023/10/05 09:31:54;;;;;;;5.60;2.73;;;15.80;99.90;;;;;;5103642;28;20429;-62
2023/10/05 09:34:36;;;;;;;10.23;3.80;;;15.90;99.90;;;;;;5103947;28;20490;-64
2023/10/05 09:37:06;;;;;;;4.10;2.77;;;15.90;99.90;;;;;;5103199;28;20429;-65
2023/10/05 09:39:43;;;;;;;5.97;2.57;;;15.90;99.90;;;;;;5103695;28;20440;-64
2023/10/05 09:42:25;;;;;;;5.10;3.07;;;15.90;99.90;;;;;;5103559;28;20795;-64
2023/10/05 09:44:53;;;;;;;4.80;2.83;;;15.90;99.90;;;;;;5098745;28;20850;-64
2023/10/05 09:47:26;;;;;;;7.73;3.03;;;15.90;99.90;;;;;;5103532;28;20442;-64
2023/10/05 09:50:01;;;;;;;11.13;3.23;;;15.90;99.90;;;;;;5102925;28;20947;-64
2023/10/05 09:52:37;;;;;;;5.50;3.20;;;15.90;99.90;;;;;;5085145;28;20519;-64
2023/10/05 09:55:07;;;;;;;5.97;3.17;;;16.00;99.90;;;;;;5102861;28;20429;-64
2023/10/05 09:57:41;;;;;;;5.83;3.30;;;16.00;99.90;;;;;;5103696;28;20516;-64
2023/10/05 10:00:47;;;;;;;7.60;3.70;;;15.90;99.90;;;;;;5103200;28;20421;-64
2023/10/05 10:03:15;;;;;;;8.50;3.77;;;15.90;99.90;;;;;;5103830;28;20433;-64
2023/10/05 10:05:42;;;;;;;7.00;3.00;;;15.90;99.90;;;;;;5095075;28;20462;-64
2023/10/05 10:08:12;;;;;;;8.00;3.57;;;16.00;99.90;;;;;;5082788;28;20520;-64
2023/10/05 10:11:06;;;;;;;9.03;3.80;;;16.00;99.90;;;;;;5085261;28;20429;-64
2023/10/05 10:13:40;;;;;;;8.07;2.87;;;16.00;99.90;;;;;;5095241;28;20986;-64
2023/10/05 10:16:16;;;;;;;7.57;3.63;;;16.10;99.90;;;;;;5102229;28;20425;-64
2023/10/05 10:18:44;;;;;;;6.80;3.33;;;16.10;99.90;;;;;;5087629;28;20436;-64
2023/10/05 10:21:21;;;;;;;8.47;3.40;;;16.10;99.90;;;;;;5102480;28;20480;-64
2023/10/05 10:24:18;;;;;;;5.63;3.00;;;16.10;99.90;;;;;;5096735;28;20435;-64
2023/10/05 10:26:53;;;;;;;9.10;3.40;;;16.00;99.90;;;;;;5086347;28;20465;-64
2023/10/05 10:29:22;;;;;;;5.17;2.80;;;16.00;99.90;;;;;;5102962;28;20445;-64
2023/10/05 10:32:19;;;;;;;7.50;3.33;;;16.00;99.90;;;;;;5102688;28;20520;-64
2023/10/05 10:34:52;;;;;;;6.13;2.90;;;16.10;99.90;;;;;;5095150;28;20437;-64
2023/10/05 10:37:42;;;;;;;6.73;2.93;;;16.10;99.90;;;;;;5103025;28;21080;-64
2023/10/05 10:43:06;;;;;;;5.20;3.00;;;16.20;99.90;;;;;;5087008;28;20946;-65
2023/10/05 10:45:34;;;;;;;5.60;3.07;;;16.10;99.90;;;;;;5101332;28;20483;-64
2023/10/05 10:48:03;;;;;;;12.57;4.73;;;16.10;99.90;;;;;;5102251;28;20429;-64
2023/10/05 10:50:30;;;;;;;3.87;3.17;;;16.20;99.90;;;;;;5103047;28;20942;-64
2023/10/05 10:52:58;;;;;;;5.43;3.27;;;16.20;99.90;;;;;;5105642;28;20468;-64
2023/10/05 10:55:31;;;;;;;5.47;2.90;;;16.20;99.90;;;;;;5106734;28;20448;-65
2023/10/05 10:57:59;;;;;;;7.90;3.60;;;16.30;99.90;;;;;;5106363;28;20482;-64
2023/10/05 11:03:15;;;;;;;9.03;3.10;;;16.40;99.90;;;;;;5106581;28;21223;-64
2023/10/05 11:05:51;;;;;;;8.17;3.17;;;16.40;99.90;;;;;;5106419;28;20949;-64
2023/10/05 11:08:20;;;;;;;5.87;2.93;;;16.40;99.90;;;;;;5103325;28;20440;-64
2023/10/05 11:10:58;;;;;;;5.67;3.30;;;16.40;99.90;;;;;;5083945;28;20429;-64
2023/10/05 11:13:25;;;;;;;8.40;3.20;;;16.50;99.90;;;;;;5106540;28;20555;-64
2023/10/05 11:15:58;;;;;;;6.40;2.93;;;16.50;99.90;;;;;;5105475;28;20429;-64
2023/10/05 11:18:39;;;;;;;5.87;2.77;;;16.60;99.90;;;;;;5106566;28;20539;-64
2023/10/05 11:21:23;;;;;;;10.20;3.00;;;16.60;99.90;;;;;;5105820;28;20440;-64
2023/10/05 11:23:57;;;;;;;9.40;3.37;;;16.60;99.90;;;;;;5105961;28;20437;-64
2023/10/05 11:26:33;;;;;;;11.37;3.27;;;16.70;99.90;;;;;;5106347;28;20441;-64
2023/10/05 11:29:07;;;;;;;7.00;3.40;;;16.80;99.90;;;;;;5078732;28;20545;-65
2023/10/05 11:31:38;;;;;;;4.43;3.70;;;16.90;99.90;;;;;;5105255;28;20463;-64
2023/10/05 11:34:09;;;;;;;9.60;3.20;;;16.90;99.90;;;;;;5105232;28;20465;-64
2023/10/05 11:36:39;;;;;;;5.60;3.17;;;17.00;99.90;;;;;;5106367;28;20425;-64
2023/10/05 11:39:20;;;;;;;4.60;3.50;;;17.00;99.90;;;;;;5101315;28;20968;-63
2023/10/05 11:41:46;;;;;;;7.37;3.77;;;17.10;99.90;;;;;;5105481;28;20437;-63
2023/10/05 11:44:15;;;;;;;10.43;4.00;;;17.10;99.90;;;;;;5106347;28;20440;-63
2023/10/05 11:46:46;;;;;;;6.00;3.60;;;17.20;99.90;;;;;;5105923;28;20959;-64
2023/10/05 11:49:13;;;;;;;5.13;3.27;;;17.20;99.90;;;;;;5106280;28;20952;-63
2023/10/05 11:51:42;;;;;;;5.50;2.87;;;17.30;99.90;;;;;;5105603;28;20986;-63
2023/10/05 11:54:15;;;;;;;6.07;3.50;;;17.40;99.90;;;;;;5105758;28;20468;-63
2023/10/05 11:56:41;;;;;;;5.87;3.63;;;17.50;99.90;;;;;;5105351;28;20487;-63
2023/10/05 11:59:10;;;;;;;7.03;3.23;;;17.60;99.90;;;;;;5105758;28;20500;-63
2023/10/05 12:01:40;;;;;;;5.67;3.00;;;17.60;99.90;;;;;;5105486;28;20471;-63
2023/10/05 12:04:07;;;;;;;6.93;3.63;;;17.70;99.90;;;;;;5104903;28;20422;-63
2023/10/05 12:06:33;;;;;;;8.90;3.80;;;17.70;99.90;;;;;;5105361;28;20433;-63
2023/10/05 12:09:06;;;;;;;7.03;3.60;;;17.70;99.90;;;;;;5105803;28;20498;-63
2023/10/05 12:11:36;;;;;;;5.23;3.50;;;17.60;99.90;;;;;;5104339;28;20434;-64
2023/10/05 12:14:04;;;;;;;8.83;3.90;;;17.70;99.90;;;;;;5104752;28;20465;-64
2023/10/05 12:16:34;;;;;;;9.23;3.73;;;17.60;99.90;;;;;;5105476;28;20430;-63
2023/10/05 12:19:13;;;;;;;7.50;3.10;;;17.50;99.90;;;;;;5104700;28;20461;-63
2023/10/05 12:21:45;;;;;;;4.70;2.77;;;17.50;99.90;;;;;;5105054;28;21124;-62
2023/10/05 12:24:11;;;;;;;7.67;2.80;;;17.50;99.90;;;;;;5105495;28;20429;-64
2023/10/05 12:26:39;;;;;;;3.83;2.90;;;17.50;99.90;;;;;;5104941;28;21083;-63
2023/10/05 12:29:13;;;;;;;5.90;3.10;;;17.50;99.90;;;;;;5105043;28;20574;-63
2023/10/05 12:31:39;;;;;;;5.87;3.03;;;17.50;99.90;;;;;;5105132;28;20428;-63
2023/10/05 12:34:14;;;;;;;9.40;3.17;;;17.50;99.90;;;;;;5091497;28;20493;-63
2023/10/05 12:36:49;;;;;;;6.13;2.93;;;17.50;99.90;;;;;;5104488;28;20440;-63
2023/10/05 12:39:17;;;;;;;9.20;3.90;;;17.40;99.90;;;;;;5105508;28;20433;-63
2023/10/05 12:41:43;;;;;;;6.27;3.20;;;17.40;99.90;;;;;;5081894;28;20521;-63
2023/10/05 12:44:13;;;;;;;5.60;3.87;;;17.50;99.90;;;;;;5104985;28;20491;-63
2023/10/05 12:46:45;;;;;;;5.97;3.13;;;17.40;99.90;;;;;;5104179;28;20439;-63
2023/10/05 12:49:14;;;;;;;5.87;3.13;;;17.40;99.90;;;;;;5105078;28;20449;-63
2023/10/05 12:51:43;;;;;;;4.00;2.87;;;17.30;99.90;;;;;;5101926;28;21116;-63
2023/10/05 12:54:11;;;;;;;5.80;2.70;;;17.30;99.90;;;;;;5086596;28;20461;-63
2023/10/05 12:56:38;;;;;;;4.57;2.87;;;17.40;99.90;;;;;;5085126;28;20491;-63
2023/10/05 12:59:10;;;;;;;5.07;3.10;;;17.40;99.90;;;;;;5104718;28;20440;-63
2023/10/05 13:01:35;;;;;;;5.43;2.97;;;17.50;99.90;;;;;;5104198;28;20425;-63
2023/10/05 13:04:05;;;;;;;5.20;3.60;;;17.60;99.90;;;;;;5104234;28;21006;-64
2023/10/05 13:06:34;;;;;;;7.50;3.47;;;17.70;99.90;;;;;;5105124;28;20194;-64
2023/10/05 13:09:03;;;;;;;5.53;3.00;;;17.70;99.90;;;;;;5105179;28;20433;-64
2023/10/05 13:11:30;;;;;;;7.87;2.90;;;17.80;99.90;;;;;;5100946;28;20787;-63
2023/10/05 13:13:57;;;;;;;6.83;3.93;;;17.80;99.90;;;;;;5104379;28;20473;-64
2023/10/05 13:16:22;;;;;;;7.03;2.90;;;18.00;99.90;;;;;;5085252;28;20440;-63
2023/10/05 13:18:54;;;;;;;4.63;3.13;;;18.00;99.90;;;;;;5104177;28;20425;-64
2023/10/05 13:21:22;;;;;;;5.17;3.47;;;18.00;99.90;;;;;;5104205;28;20230;-63
2023/10/05 13:23:48;;;;;;;5.83;2.90;;;18.00;99.90;;;;;;5104148;28;20441;-64